createdAt,value
2023-01-07T00:00:26.847Z,101508.31
2023-01-07T00:02:58.146Z,101508.59
2023-01-07T00:05:28.397Z,101512.97
2023-01-07T00:07:58.959Z,101510.53
2023-01-07T00:10:29.588Z,101511.34
2023-01-07T00:12:59.774Z,101517.66
2023-01-07T00:15:31.557Z,101527.00
2023-01-07T00:18:01.798Z,101526.47
2023-01-07T00:20:32.035Z,101528.38
2023-01-07T00:23:02.085Z,101522.31
2023-01-07T00:25:32.323Z,101527.25
2023-01-07T00:28:02.554Z,101534.16
2023-01-07T00:30:32.797Z,101536.09
2023-01-07T00:33:05.795Z,101539.94
2023-01-07T00:35:39.241Z,101535.53
2023-01-07T00:38:09.823Z,101545.13
2023-01-07T00:40:40.575Z,101539.09
2023-01-07T00:43:11.818Z,101549.56
2023-01-07T00:45:42.159Z,101548.19
2023-01-07T00:48:12.689Z,101554.50
2023-01-07T00:50:43.219Z,101554.78
2023-01-07T00:53:15.000Z,101560.28
2023-01-07T00:55:45.485Z,101567.72
2023-01-07T00:58:23.211Z,101578.97
2023-01-07T01:00:59.620Z,101584.72
2023-01-07T01:03:31.457Z,101584.41
2023-01-07T01:06:18.577Z,101592.16
2023-01-07T01:08:49.901Z,101595.41
2023-01-07T01:11:20.812Z,101591.28
2023-01-07T01:13:51.010Z,101598.19
2023-01-07T01:16:21.555Z,101604.19
2023-01-07T01:18:51.799Z,101604.47
2023-01-07T01:21:23.709Z,101604.78
2023-01-07T01:23:53.998Z,101620.41
2023-01-07T01:26:24.511Z,101616.59
2023-01-07T01:28:54.795Z,101624.53
2023-01-07T01:31:27.664Z,101629.19
2023-01-07T01:33:59.606Z,101630.56
2023-01-07T01:36:30.101Z,101638.78
2023-01-07T01:39:02.228Z,101639.88
2023-01-07T01:41:35.680Z,101640.44
2023-01-07T01:44:44.579Z,101653.06
2023-01-07T01:47:40.086Z,101662.16
2023-01-07T01:50:19.759Z,101662.13
2023-01-07T01:53:03.185Z,101666.28
2023-01-07T01:55:41.501Z,101674.53
2023-01-07T01:58:22.942Z,101676.16
2023-01-07T02:00:54.336Z,101678.06
2023-01-07T02:03:29.657Z,101680.00
2023-01-07T02:06:00.276Z,101691.53
2023-01-07T02:08:31.207Z,101682.19
2023-01-07T02:11:19.781Z,101688.22
2023-01-07T02:14:12.944Z,101701.13
2023-01-07T02:16:47.005Z,101692.91
2023-01-07T02:19:25.655Z,101698.13
2023-01-07T02:22:01.802Z,101703.00
2023-01-07T02:24:47.209Z,101697.00
2023-01-07T02:27:31.109Z,101705.25
2023-01-07T02:30:37.899Z,101708.56
2023-01-07T02:33:19.624Z,101703.06
2023-01-07T02:36:06.882Z,101706.09
2023-01-07T02:38:48.933Z,101699.22
2023-01-07T02:41:25.251Z,101710.75
2023-01-07T02:44:34.685Z,101707.47
2023-01-07T02:47:17.092Z,101711.31
2023-01-07T02:49:50.205Z,101710.75
2023-01-07T02:52:27.958Z,101710.75
2023-01-07T02:55:10.582Z,101709.38
2023-01-07T02:58:03.637Z,101712.13
2023-01-07T03:01:00.236Z,101707.19
2023-01-07T03:03:51.761Z,101700.88
2023-01-07T03:06:47.738Z,101711.03
2023-01-07T03:09:54.293Z,101706.38
2023-01-07T03:12:35.103Z,101705.81
2023-01-07T03:15:20.886Z,101706.91
2023-01-07T08:21:01.795Z,101156.41
2023-01-07T08:23:34.183Z,101156.94
2023-01-07T08:26:05.844Z,101158.00
2023-01-07T08:28:36.571Z,101153.56
2023-01-07T08:31:09.358Z,101148.53
2023-01-07T08:33:41.920Z,101144.88
2023-01-07T08:36:22.439Z,101144.34
2023-01-07T08:38:57.512Z,101140.09
2023-01-07T08:41:28.218Z,101134.03
2023-01-07T08:43:58.512Z,101135.34
2023-01-07T08:46:28.720Z,101136.72
2023-01-07T08:48:59.432Z,101143.22
2023-01-07T08:51:29.705Z,101137.16
2023-01-07T08:53:59.902Z,101128.38
2023-01-07T08:56:30.228Z,101127.25
2023-01-07T08:59:00.428Z,101122.28
2023-01-07T09:01:30.764Z,101115.44
2023-01-07T09:04:00.979Z,101123.91
2023-01-07T09:06:31.018Z,101109.84
2023-01-07T09:09:01.003Z,101115.97
2023-01-07T09:11:31.130Z,101110.47
2023-01-07T09:14:01.273Z,101117.81
2023-01-07T09:16:31.554Z,101105.47
2023-01-07T09:19:01.811Z,101112.31
2023-01-07T09:21:32.831Z,101107.94
2023-01-07T09:24:03.180Z,101110.69
2023-01-07T09:26:33.473Z,101112.31
2023-01-07T09:29:03.671Z,101119.47
2023-01-07T09:31:34.055Z,101117.44
2023-01-07T09:34:04.484Z,101119.38
2023-01-07T09:36:35.776Z,101120.47
2023-01-07T09:39:07.177Z,101124.06
2023-01-07T09:41:45.405Z,101122.75
2023-01-07T09:44:38.771Z,101134.56
2023-01-07T09:47:11.606Z,101129.25
2023-01-07T09:49:43.849Z,101129.25
2023-01-07T09:52:20.439Z,101137.25
2023-01-07T09:54:56.118Z,101133.75
2023-01-07T09:57:26.422Z,101133.75
2023-01-07T09:59:56.736Z,101143.59
2023-01-07T10:02:33.683Z,101141.38
2023-01-07T10:05:34.361Z,101160.38
2023-01-07T10:08:31.188Z,101151.53
2023-01-07T10:11:10.824Z,101154.28
2023-01-07T10:14:05.430Z,101152.03
2023-01-07T10:16:43.836Z,101163.56
2023-01-07T10:19:22.524Z,101160.28
2023-01-07T10:22:06.120Z,101165.78
2023-01-07T10:24:46.240Z,101174.28
2023-01-07T10:27:21.315Z,101181.44
2023-01-07T10:29:57.193Z,101183.06
2023-01-07T10:32:34.392Z,101184.75
2023-01-07T10:35:05.538Z,101181.78
2023-01-07T10:37:44.057Z,101182.53
2023-01-07T10:40:46.880Z,101188.84
2023-01-07T10:43:53.833Z,101190.19
2023-01-07T10:46:35.013Z,101186.31
2023-01-07T10:49:19.447Z,101183.06
2023-01-07T10:52:11.139Z,101191.00
2023-01-07T10:55:12.622Z,101189.06
2023-01-07T10:57:43.720Z,101195.09
2023-01-07T11:00:18.962Z,101192.94
2023-01-07T11:02:55.110Z,101207.22
2023-01-07T11:05:27.449Z,101199.25
2023-01-07T11:08:03.742Z,101200.91
2023-01-07T11:10:38.901Z,101196.81
2023-01-07T11:13:21.584Z,101198.97
2023-01-07T11:15:59.361Z,101198.97
2023-01-07T11:18:59.918Z,101206.69
2023-01-07T11:21:48.602Z,101211.91
2023-01-07T11:24:29.931Z,101206.09
2023-01-07T11:27:28.176Z,101208.06
2023-01-07T11:30:03.110Z,101204.19
2023-01-07T11:32:43.194Z,101216.84
2023-01-07T11:35:23.934Z,101212.44
2023-01-07T11:37:54.526Z,101219.06
2023-01-07T11:40:31.379Z,101219.06
2023-01-07T11:43:06.724Z,101226.78
2023-01-07T11:46:19.643Z,101221.81
2023-01-07T11:49:03.556Z,101227.91
2023-01-07T11:51:43.539Z,101234.47
2023-01-07T11:54:31.633Z,101233.72
2023-01-07T11:57:23.168Z,101229.59
2023-01-07T12:00:15.564Z,101250.22
2023-01-07T12:02:46.368Z,101244.72
2023-01-07T12:05:31.822Z,101246.63
2023-01-07T12:08:02.216Z,101251.09
2023-01-07T12:10:38.635Z,101263.47
2023-01-07T12:13:25.654Z,101270.34
2023-01-07T12:16:01.380Z,101271.72
2023-01-07T12:18:52.463Z,101278.38
2023-01-07T12:21:38.023Z,101283.88
2023-01-07T12:24:22.366Z,101288.28
2023-01-07T12:26:55.796Z,101290.50
2023-01-07T12:29:50.103Z,101293.25
2023-01-07T12:32:28.736Z,101298.22
2023-01-07T12:35:15.390Z,101303.22
2023-01-07T12:37:50.475Z,101298.84
2023-01-07T12:40:31.462Z,101304.84
2023-01-07T12:43:12.762Z,101308.44
2023-01-07T12:46:00.598Z,101312.28
2023-01-07T12:49:00.068Z,101317.50
2023-01-07T12:51:33.375Z,101321.44
2023-01-07T12:54:26.892Z,101322.78
2023-01-07T12:57:02.452Z,101331.88
2023-01-07T13:00:10.793Z,101334.34
2023-01-07T13:03:13.747Z,101344.47
2023-01-07T13:05:55.670Z,101346.72
2023-01-07T13:08:31.733Z,101339.88
2023-01-07T13:11:54.355Z,101342.91
2023-01-07T13:14:35.289Z,101349.84
2023-01-07T13:17:29.286Z,101350.34
2023-01-07T13:20:00.996Z,101349.53
2023-01-07T13:22:40.771Z,101355.59
2023-01-07T13:25:29.390Z,101361.66
2023-01-07T13:28:40.528Z,101369.91
2023-01-07T13:31:10.752Z,101367.44
2023-01-07T13:33:59.820Z,101370.97
2023-01-07T13:37:05.595Z,101371.84
2023-01-07T13:40:08.920Z,101377.34
2023-01-07T13:43:09.063Z,101383.66
2023-01-07T13:45:40.954Z,101383.66
2023-01-07T13:48:24.178Z,101387.50
2023-01-07T13:51:29.252Z,101394.66
2023-01-07T13:54:00.082Z,101398.22
2023-01-07T13:56:30.304Z,101396.34
2023-01-07T13:59:02.746Z,101401.56
2023-01-07T14:01:36.455Z,101401.84
2023-01-07T14:04:08.394Z,101409.81
2023-01-07T14:06:46.376Z,101399.41
2023-01-07T14:09:22.293Z,101409.28
2023-01-07T14:12:07.377Z,101413.97
2023-01-07T14:14:52.070Z,101413.97
2023-01-07T14:18:03.917Z,101410.16
2023-01-07T14:21:21.347Z,101420.88
2023-01-07T14:24:18.769Z,101413.16
2023-01-07T14:27:07.245Z,101412.84
2023-01-07T14:29:54.376Z,101409.00
2023-01-07T14:32:32.279Z,101406.53
2023-01-07T14:35:08.264Z,101418.94
2023-01-07T14:37:40.047Z,101413.97
2023-01-07T14:40:28.614Z,101412.59
2023-01-07T14:43:05.833Z,101407.66
2023-01-07T14:45:42.094Z,101420.84
2023-01-07T14:48:14.980Z,101418.88
2023-01-07T14:51:35.402Z,101420.84
2023-01-07T14:54:16.518Z,101419.19
2023-01-07T14:57:21.675Z,101419.13
2023-01-07T15:03:36.209Z,101423.47
2023-01-07T15:06:41.572Z,101414.13
2023-01-07T15:09:34.092Z,101418.28
2023-01-07T15:12:28.114Z,101415.53
2023-01-07T15:15:49.487Z,101410.53
2023-01-07T15:18:20.217Z,101410.81
2023-01-07T15:21:32.253Z,101412.16
2023-01-07T15:24:25.041Z,101409.75
2023-01-07T15:27:03.980Z,101410.03
2023-01-07T15:29:52.710Z,101403.09
2023-01-07T15:32:35.357Z,101404.75
2023-01-07T15:35:21.007Z,101403.63
2023-01-07T15:37:53.431Z,101400.06
2023-01-07T15:40:27.361Z,101406.41
2023-01-07T15:43:02.244Z,101402.75
2023-01-07T15:45:32.559Z,101400.53
2023-01-07T15:48:15.452Z,101403.28
2023-01-07T15:50:48.914Z,101384.56
2023-01-07T15:53:27.032Z,101399.44
2023-01-07T15:56:17.234Z,101393.34
2023-01-07T15:58:51.037Z,101387.00
2023-01-07T16:01:27.195Z,101385.59
2023-01-07T16:03:59.474Z,101388.34
2023-01-07T16:06:36.577Z,101389.19
2023-01-07T16:09:24.977Z,101387.06
2023-01-07T16:11:55.585Z,101403.56
2023-01-07T16:14:29.615Z,101398.38
2023-01-07T16:17:29.572Z,101394.28
2023-01-07T16:20:24.011Z,101390.69
2023-01-07T16:23:03.275Z,101386.91
2023-01-07T16:25:57.705Z,101375.88
2023-01-07T16:28:36.652Z,101382.19
2023-01-07T16:31:09.659Z,101383.31
2023-01-07T16:33:41.084Z,101381.41
2023-01-07T16:36:19.402Z,101378.38
2023-01-07T16:38:53.738Z,101378.66
2023-01-07T16:41:30.016Z,101378.09
2023-01-07T16:44:03.887Z,101382.19
2023-01-07T16:46:41.172Z,101368.78
2023-01-07T16:49:14.259Z,101378.97
2023-01-07T16:51:56.877Z,101375.72
2023-01-07T16:54:33.006Z,101369.09
2023-01-07T16:57:05.223Z,101373.75
2023-01-07T16:59:53.604Z,101374.06
2023-01-07T17:02:57.918Z,101369.09
2023-01-07T17:05:30.833Z,101374.06
2023-01-07T17:08:10.944Z,101374.06
2023-01-07T17:10:46.525Z,101368.03
2023-01-07T17:13:16.609Z,101370.78
2023-01-07T17:15:46.710Z,101372.69
2023-01-07T17:18:19.343Z,101366.91
2023-01-07T17:20:58.607Z,101368.25
2023-01-07T17:23:28.824Z,101362.75
2023-01-07T17:26:05.490Z,101358.66
2023-01-07T17:28:48.217Z,101366.91
2023-01-07T17:31:18.678Z,101360.03
2023-01-07T17:33:49.221Z,101368.03
2023-01-07T17:36:21.712Z,101364.75
2023-01-07T17:38:51.849Z,101363.91
2023-01-07T17:41:44.617Z,101365.84
2023-01-07T17:44:15.265Z,101358.13
2023-01-07T17:46:45.722Z,101360.03
2023-01-07T17:49:16.042Z,101363.31
2023-01-07T17:51:49.533Z,101365.81
2023-01-07T17:54:23.539Z,101349.88
2023-01-07T17:56:54.683Z,101347.94
2023-01-07T17:59:26.377Z,101344.38
2023-01-07T18:02:00.321Z,101338.88
2023-01-07T18:04:30.681Z,101341.91
2023-01-07T18:07:01.377Z,101340.28
2023-01-07T18:09:33.239Z,101330.88
2023-01-07T18:12:21.700Z,101339.44
2023-01-07T18:14:53.156Z,101331.50
2023-01-07T18:17:25.288Z,101330.09
2023-01-07T18:19:55.717Z,101323.78
2023-01-07T18:22:27.488Z,101320.50
2023-01-07T18:24:57.647Z,101315.22
2023-01-07T18:27:27.766Z,101312.78
2023-01-07T18:29:58.500Z,101306.97
2023-01-07T18:32:28.725Z,101305.63
2023-01-07T18:34:59.052Z,101306.75
2023-01-07T18:37:30.908Z,101297.13
2023-01-07T18:40:06.612Z,101299.34
2023-01-07T18:42:38.084Z,101294.38
2023-01-07T18:45:08.458Z,101298.19
2023-01-07T18:47:41.490Z,101292.97
2023-01-07T18:50:12.164Z,101289.69
2023-01-07T18:52:43.935Z,101294.63
2023-01-07T18:55:14.355Z,101283.09
2023-01-07T18:57:44.743Z,101282.56
2023-01-07T19:00:15.624Z,101278.69
2023-01-07T19:02:46.291Z,101281.72
2023-01-07T19:05:16.615Z,101282.25
2023-01-07T19:07:46.898Z,101280.91
2023-01-07T19:10:16.957Z,101275.41
2023-01-07T19:12:47.249Z,101282.56
2023-01-07T19:15:19.101Z,101264.94
2023-01-07T19:17:49.409Z,101265.22
2023-01-07T19:20:20.063Z,101269.91
2023-01-07T19:22:50.404Z,101258.91
2023-01-07T19:25:20.571Z,101260.59
2023-01-07T19:27:51.574Z,101256.22
2023-01-07T19:30:21.819Z,101261.13
2023-01-07T19:32:52.225Z,101250.44
2023-01-07T19:35:23.646Z,101250.72
2023-01-07T19:37:53.477Z,101247.97
2023-01-07T19:40:23.543Z,101250.19
2023-01-07T19:42:53.830Z,101243.56
2023-01-07T19:45:24.116Z,101237.25
2023-01-07T19:47:54.699Z,101238.06
2023-01-07T19:50:25.912Z,101235.94
2023-01-07T19:52:56.122Z,101234.78
2023-01-07T19:55:26.627Z,101226.25
2023-01-07T19:57:57.995Z,101230.13
2023-01-07T20:00:28.205Z,101221.56
2023-01-07T20:03:00.008Z,101224.63
2023-01-07T20:05:32.458Z,101225.16
2023-01-07T20:08:03.712Z,101228.13
2023-01-07T20:10:33.989Z,101227.81
2023-01-07T20:13:04.305Z,101220.19
2023-01-07T20:15:35.912Z,101223.97
2023-01-07T20:18:06.224Z,101222.63
2023-01-07T20:20:36.371Z,101224.63
2023-01-07T20:23:06.493Z,101222.94
2023-01-07T20:25:36.790Z,101225.97
2023-01-07T20:28:07.102Z,101217.69
2023-01-07T20:30:37.185Z,101220.75
2023-01-07T20:33:07.435Z,101216.66
2023-01-07T20:35:38.668Z,101210.88
2023-01-07T20:38:11.706Z,101229.00
2023-01-07T20:40:42.925Z,101222.19
2023-01-07T20:43:14.870Z,101224.91
2023-01-07T20:45:45.220Z,101218.28
2023-01-07T20:48:17.971Z,101221.03
2023-01-07T20:50:49.169Z,101227.38
2023-01-07T20:53:20.388Z,101234.50
2023-01-07T20:55:54.127Z,101224.91
2023-01-07T20:58:24.297Z,101235.09
2023-01-07T21:00:54.808Z,101231.50
2023-01-07T21:03:25.866Z,101237.84
2023-01-07T21:05:59.874Z,101234.78
2023-01-07T21:08:30.565Z,101228.22
2023-01-07T21:11:00.801Z,101238.69
2023-01-07T21:13:31.015Z,101241.66
2023-01-07T21:16:06.443Z,101245.84
2023-01-07T21:18:37.408Z,101243.09
2023-01-07T21:21:16.893Z,101243.09
2023-01-07T21:23:51.133Z,101248.28
2023-01-07T21:26:22.161Z,101248.59
2023-01-07T21:28:55.496Z,101247.16
2023-01-07T21:31:27.636Z,101252.66
2023-01-07T21:34:00.934Z,101256.25
2023-01-07T21:36:31.435Z,101255.19
2023-01-07T21:39:03.263Z,101249.13
2023-01-07T21:41:33.526Z,101256.84
2023-01-07T21:44:03.667Z,101252.97
2023-01-07T21:46:33.721Z,101249.69
2023-01-07T21:49:06.173Z,101254.03
2023-01-07T21:51:36.724Z,101249.69
2023-01-07T21:54:06.985Z,101254.34
2023-01-07T21:56:38.109Z,101254.09
2023-01-07T21:59:13.306Z,101253.50
2023-01-07T22:01:43.744Z,101256.00
2023-01-07T22:04:14.614Z,101255.72
2023-01-07T22:06:45.339Z,101255.78
2023-01-07T22:09:18.879Z,101254.09
2023-01-07T22:11:49.186Z,101261.50
2023-01-07T22:14:22.553Z,101260.16
2023-01-07T22:16:52.757Z,101261.81
2023-01-07T22:19:23.602Z,101263.44
2023-01-07T22:21:54.836Z,101267.31
2023-01-07T22:24:25.500Z,101267.84
2023-01-07T22:26:57.424Z,101276.09
2023-01-07T22:29:27.863Z,101277.72
2023-01-07T22:31:58.003Z,101268.09
2023-01-07T22:34:28.274Z,101272.22
2023-01-07T22:37:16.951Z,101284.34
2023-01-07T22:39:54.099Z,101274.13
2023-01-07T22:42:31.350Z,101286.25
2023-01-07T22:45:08.162Z,101281.84
2023-01-07T22:47:44.265Z,101276.63
2023-01-07T22:50:16.990Z,101286.50
2023-01-07T22:52:47.971Z,101277.19
2023-01-07T22:55:19.221Z,101271.91
2023-01-07T22:57:49.482Z,101287.34
2023-01-07T23:00:54.881Z,101282.91
2023-01-07T23:03:26.943Z,101289.31
2023-01-07T23:05:57.644Z,101291.16
2023-01-07T23:08:27.833Z,101294.75
2023-01-07T23:10:58.019Z,101295.59
2023-01-07T23:13:28.300Z,101295.59
2023-01-07T23:15:59.666Z,101298.34
2023-01-07T23:18:30.143Z,101298.34
2023-01-07T23:21:00.501Z,101300.31
2023-01-07T23:23:33.569Z,101304.13
2023-01-07T23:26:03.801Z,101303.28
2023-01-07T23:28:33.933Z,101315.38
2023-01-07T23:31:04.547Z,101317.03
2023-01-07T23:33:34.751Z,101323.41
2023-01-07T23:36:08.840Z,101328.69
2023-01-07T23:38:39.922Z,101324.84
2023-01-07T23:41:14.102Z,101330.94
2023-01-07T23:43:44.207Z,101337.00
2023-01-07T23:46:14.977Z,101337.63
2023-01-07T23:48:45.152Z,101338.22
2023-01-07T23:51:18.714Z,101340.50
2023-01-07T23:53:49.610Z,101336.34
2023-01-07T23:56:23.587Z,101345.47
2023-01-07T23:58:54.100Z,101347.91
